Fort Supply, Oklahoma
Current Conditions -  °F | °C
As of 11:35 AM on Tuesday 21 Oct 2014 (Local Time) from KWWR Reporting Station
Clear Clear  
Wind Chill: 79°   Ceiling: Unl
Heat Index: 79°   Visibility: 10mi
Dew Point: 52°   Wind: 12mph
Humidity: 39%   Direction: 220°SW
Pressure: 30.12"   Gusts: NA
Location:  36.57°N, 99.57°W
Report Text: KWWR 211635Z AUTO 22010KT 10SM CLR 26/11 A3012 RMK AO2
Loading
Personal Weather Stations






























Interactive Weather Map
Tropical Storm Tracking
New forecast layout! Learn more

10-Day Weather Forecast

Advertisements
Track Severe Weather on mobile